
Distance (Route):
Temperature : 5.4°C
Humidity : 35.7%
Pressure : 0hPa| Receiver | Frames | First received | Last received |
|---|---|---|---|
| LZ4TU-5 | 112 | 2026-09-04 23:25:05 | 2026-09-05 01:05:05 |
| Receiver | Date | Latitude | Longitude | Direction | Speed | Altitude | Climb | Temperature | Humidity | Pressure | Voltage | Killtimer | Uptime | BKT | XDATA |
|---|---|---|---|---|---|---|---|---|---|---|---|---|---|---|---|
| LZ4TU-5 | 2026-09-05 01:05:05 | 43.03692 | 22.06569 | 214° | 40km/h | 3646m | -15.8m/s | 5.4°C | 35.7% | 0hPa | 0V | 00:00:00 | 00:00:00 | 00:00:00 | |
| LZ4TU-5 | 2026-09-05 01:03:00 | 43.04757 | 22.07314 | 162° | 29km/h | 5526m | -20.0m/s | -5.8°C | 21.7% | 0hPa | 0V | 00:00:00 | 00:00:00 | 00:00:00 | |
| LZ4TU-5 | 2026-09-05 01:02:56 | 43.04787 | 22.07302 | 166° | 27km/h | 5591m | -20.0m/s | -6.3°C | 34.6% | 0hPa | 0V | 00:00:00 | 00:00:00 | 00:00:00 | |
| LZ4TU-5 | 2026-09-05 01:00:48 | 43.05615 | 22.06555 | 149° | 33km/h | 7870m | -22.2m/s | -21.8°C | 18.3% | 0hPa | 0V | 00:00:00 | 00:00:00 | 00:00:00 | |
| LZ4TU-5 | 2026-09-05 01:00:42 | 43.05651 | 22.06520 | 141° | 37km/h | 7971m | -22.0m/s | -22.4°C | 20.2% | 0hPa | 0V | 00:00:00 | 00:00:00 | 00:00:00 | |
| LZ4TU-5 | 2026-09-05 00:58:50 | 43.06733 | 22.05729 | 160° | 40km/h | 10294m | -22.4m/s | -40.7°C | 72.4% | 0hPa | 0V | 00:00:00 | 00:00:00 | 00:00:00 | |
| LZ4TU-5 | 2026-09-05 00:58:44 | 43.06781 | 22.05704 | 161° | 40km/h | 10403m | -22.1m/s | -42.0°C | 70.3% | 0hPa | 0V | 00:00:00 | 00:00:00 | 00:00:00 | |
| LZ4TU-5 | 2026-09-05 00:56:35 | 43.08327 | 22.05212 | 167° | 58km/h | 13474m | -26.1m/s | -64.5°C | 5.0% | 0hPa | 0V | 00:00:00 | 00:00:00 | 00:00:00 | |
| LZ4TU-5 | 2026-09-05 00:56:30 | 43.08407 | 22.05192 | 170° | 46km/h | 13554m | -26.5m/s | -64.1°C | 3.4% | 0hPa | 0V | 00:00:00 | 00:00:00 | 00:00:00 | |
| LZ4TU-5 | 2026-09-05 00:54:27 | 43.08827 | 22.04308 | 74° | 33km/h | 17309m | -37.5m/s | -60.9°C | 0.0% | 0hPa | 0V | 00:00:00 | 00:00:00 | 00:00:00 | |
| LZ4TU-5 | 2026-09-05 00:54:22 | 43.08815 | 22.04252 | 79° | 35km/h | 17492m | -37.9m/s | -58.3°C | 0.0% | 0hPa | 0V | 00:00:00 | 00:00:00 | 00:00:00 | |
| LZ4TU-5 | 2026-09-05 00:52:01 | 43.10834 | 22.01278 | 0° | 0km/h | 30360m | 0.0m/s | -51.6°C | 0.0% | 0hPa | 0V | 00:00:00 | 00:00:00 | 00:00:00 | |
| LZ4TU-5 | 2026-09-05 00:51:57 | 43.10814 | 22.01289 | 0° | 0km/h | 30598m | 0.0m/s | -50.4°C | 0.0% | 0hPa | 0V | 00:00:00 | 00:00:00 | 00:00:00 | |
| LZ4TU-5 | 2026-09-05 00:51:52 | 43.10789 | 22.01301 | 0° | 0km/h | 30875m | 0.0m/s | -50.0°C | 0.0% | 0hPa | 0V | 00:00:00 | 00:00:00 | 00:00:00 | |
| LZ4TU-5 | 2026-09-05 00:51:47 | 43.10815 | 22.01257 | 0° | 0km/h | 31090m | 0.0m/s | -48.5°C | 0.0% | 0hPa | 0V | 00:00:00 | 00:00:00 | 00:00:00 | |
| LZ4TU-5 | 2026-09-05 00:49:09 | 43.08676 | 22.04449 | 266° | 16km/h | 31124m | 6.5m/s | -45.3°C | 0.0% | 0hPa | 0V | 00:00:00 | 00:00:00 | 00:00:00 | |
| LZ4TU-5 | 2026-09-05 00:49:04 | 43.08681 | 22.04493 | 278° | 27km/h | 31092m | 6.8m/s | -45.3°C | 0.0% | 0hPa | 0V | 00:00:00 | 00:00:00 | 00:00:00 | |
| LZ4TU-5 | 2026-09-05 00:48:59 | 43.08667 | 22.04520 | 292° | 16km/h | 31061m | 7.0m/s | -45.2°C | 0.0% | 0hPa | 0V | 00:00:00 | 00:00:00 | 00:00:00 | |
| LZ4TU-5 | 2026-09-05 00:44:07 | 43.09420 | 22.04802 | 72° | 11km/h | 29200m | 6.6m/s | -45.1°C | 0.0% | 0hPa | 0V | 00:00:00 | 00:00:00 | 00:00:00 | |
| LZ4TU-5 | 2026-09-05 00:44:03 | 43.09421 | 22.04793 | 174° | 4km/h | 29172m | 6.3m/s | -45.1°C | 0.0% | 0hPa | 0V | 00:00:00 | 00:00:00 | 00:00:00 | |
| LZ4TU-5 | 2026-09-05 00:40:27 | 43.09070 | 22.05203 | 316° | 9km/h | 27794m | 6.6m/s | -46.6°C | 0.0% | 0hPa | 0V | 00:00:00 | 00:00:00 | 00:00:00 | |
| LZ4TU-5 | 2026-09-05 00:40:22 | 43.09051 | 22.05210 | 2° | 18km/h | 27761m | 6.7m/s | -46.8°C | 0.0% | 0hPa | 0V | 00:00:00 | 00:00:00 | 00:00:00 | |
| LZ4TU-5 | 2026-09-05 00:37:27 | 43.09042 | 22.05408 | 27° | 5km/h | 26643m | 6.1m/s | -47.1°C | 0.0% | 0hPa | 0V | 00:00:00 | 00:00:00 | 00:00:00 | |
| LZ4TU-5 | 2026-09-05 00:37:22 | 43.09032 | 22.05403 | 254° | 7km/h | 26611m | 6.1m/s | -47.2°C | 0.0% | 0hPa | 0V | 00:00:00 | 00:00:00 | 00:00:00 | |
| LZ4TU-5 | 2026-09-05 00:35:51 | 43.08973 | 22.05330 | 349° | 15km/h | 26048m | 6.2m/s | -48.3°C | 0.0% | 0hPa | 0V | 00:00:00 | 00:00:00 | 00:00:00 | |
| LZ4TU-5 | 2026-09-05 00:35:46 | 43.08960 | 22.05321 | 48° | 16km/h | 26017m | 6.4m/s | -48.7°C | 0.0% | 0hPa | 0V | 00:00:00 | 00:00:00 | 00:00:00 | |
| LZ4TU-5 | 2026-09-05 00:34:11 | 43.08826 | 22.05052 | 27° | 16km/h | 25432m | 5.9m/s | -50.6°C | 0.0% | 0hPa | 0V | 00:00:00 | 00:00:00 | 00:00:00 | |
| LZ4TU-5 | 2026-09-05 00:34:05 | 43.08805 | 22.05053 | 28° | 7km/h | 25400m | 5.5m/s | -50.4°C | 0.0% | 0hPa | 0V | 00:00:00 | 00:00:00 | 00:00:00 | |
| LZ4TU-5 | 2026-09-05 00:31:10 | 43.08369 | 22.05071 | 140° | 7km/h | 24311m | 6.1m/s | -52.7°C | 0.0% | 0hPa | 0V | 00:00:00 | 00:00:00 | 00:00:00 | |
| LZ4TU-5 | 2026-09-05 00:31:06 | 43.08371 | 22.05061 | 43° | 5km/h | 24285m | 5.8m/s | -52.9°C | 0.0% | 0hPa | 0V | 00:00:00 | 00:00:00 | 00:00:00 | |
| LZ4TU-5 | 2026-09-05 00:29:17 | 43.08166 | 22.05107 | 360° | 9km/h | 23643m | 6.0m/s | -53.0°C | 0.0% | 0hPa | 0V | 00:00:00 | 00:00:00 | 00:00:00 | |
| LZ4TU-5 | 2026-09-05 00:29:13 | 43.08165 | 22.05110 | 200° | 11km/h | 23619m | 6.2m/s | -53.0°C | 0.0% | 0hPa | 0V | 00:00:00 | 00:00:00 | 00:00:00 | |
| LZ4TU-5 | 2026-09-05 00:27:31 | 43.08112 | 22.05110 | 235° | 7km/h | 23025m | 5.7m/s | -55.6°C | 0.0% | 0hPa | 0V | 00:00:00 | 00:00:00 | 00:00:00 | |
| LZ4TU-5 | 2026-09-05 00:27:26 | 43.08118 | 22.05114 | 186° | 9km/h | 22997m | 5.9m/s | -55.4°C | 0.0% | 0hPa | 0V | 00:00:00 | 00:00:00 | 00:00:00 | |
| LZ4TU-5 | 2026-09-05 00:25:47 | 43.08082 | 22.04779 | 354° | 26km/h | 22422m | 5.8m/s | -55.3°C | 0.0% | 0hPa | 0V | 00:00:00 | 00:00:00 | 00:00:00 | |
| LZ4TU-5 | 2026-09-05 00:25:43 | 43.08056 | 22.04781 | 2° | 20km/h | 22391m | 5.6m/s | -55.4°C | 0.0% | 0hPa | 0V | 00:00:00 | 00:00:00 | 00:00:00 | |
| LZ4TU-5 | 2026-09-05 00:23:54 | 43.07983 | 22.05074 | 175° | 16km/h | 21764m | 5.9m/s | -55.7°C | 0.0% | 0hPa | 0V | 00:00:00 | 00:00:00 | 00:00:00 | |
| LZ4TU-5 | 2026-09-05 00:23:49 | 43.07992 | 22.05063 | 89° | 20km/h | 21733m | 5.9m/s | -55.7°C | 0.0% | 0hPa | 0V | 00:00:00 | 00:00:00 | 00:00:00 | |
| LZ4TU-5 | 2026-09-05 00:22:10 | 43.07868 | 22.04796 | 343° | 4km/h | 21181m | 5.7m/s | -56.7°C | 0.0% | 0hPa | 0V | 00:00:00 | 00:00:00 | 00:00:00 | |
| LZ4TU-5 | 2026-09-05 00:22:05 | 43.07864 | 22.04793 | 87° | 9km/h | 21154m | 5.4m/s | -56.6°C | 0.0% | 0hPa | 0V | 00:00:00 | 00:00:00 | 00:00:00 | |
| LZ4TU-5 | 2026-09-05 00:20:23 | 43.07904 | 22.04426 | 69° | 9km/h | 20577m | 5.2m/s | -55.6°C | 0.0% | 0hPa | 0V | 00:00:00 | 00:00:00 | 00:00:00 | |
| LZ4TU-5 | 2026-09-05 00:20:18 | 43.07914 | 22.04415 | 166° | 13km/h | 20550m | 5.0m/s | -55.6°C | 0.0% | 0hPa | 0V | 00:00:00 | 00:00:00 | 00:00:00 | |
| LZ4TU-5 | 2026-09-05 00:18:37 | 43.08119 | 22.04016 | 94° | 16km/h | 20003m | 5.7m/s | -57.0°C | 0.0% | 0hPa | 0V | 00:00:00 | 00:00:00 | 00:00:00 | |
| LZ4TU-5 | 2026-09-05 00:18:32 | 43.08120 | 22.03989 | 80° | 16km/h | 19973m | 5.6m/s | -56.9°C | 0.0% | 0hPa | 0V | 00:00:00 | 00:00:00 | 00:00:00 | |
| LZ4TU-5 | 2026-09-05 00:16:44 | 43.08090 | 22.03666 | 70° | 22km/h | 19378m | 5.7m/s | -57.7°C | 0.1% | 0hPa | 0V | 00:00:00 | 00:00:00 | 00:00:00 | |
| LZ4TU-5 | 2026-09-05 00:16:40 | 43.08081 | 22.03624 | 74° | 38km/h | 19356m | 5.9m/s | -57.7°C | 0.1% | 0hPa | 0V | 00:00:00 | 00:00:00 | 00:00:00 | |
| LZ4TU-5 | 2026-09-05 00:14:35 | 43.07671 | 22.02940 | 55° | 13km/h | 18662m | 5.1m/s | -57.4°C | 0.6% | 0hPa | 0V | 00:00:00 | 00:00:00 | 00:00:00 | |
| LZ4TU-5 | 2026-09-05 00:14:30 | 43.07671 | 22.02921 | 122° | 7km/h | 18636m | 5.1m/s | -58.0°C | 0.7% | 0hPa | 0V | 00:00:00 | 00:00:00 | 00:00:00 | |
| LZ4TU-5 | 2026-09-05 00:12:43 | 43.07692 | 22.02241 | 43° | 33km/h | 18069m | 5.1m/s | -58.4°C | 1.4% | 0hPa | 0V | 00:00:00 | 00:00:00 | 00:00:00 | |
| LZ4TU-5 | 2026-09-05 00:12:38 | 43.07658 | 22.02193 | 50° | 31km/h | 18043m | 5.2m/s | -58.5°C | 1.4% | 0hPa | 0V | 00:00:00 | 00:00:00 | 00:00:00 | |
| LZ4TU-5 | 2026-09-05 00:11:00 | 43.07462 | 22.01313 | 79° | 40km/h | 17537m | 5.1m/s | -59.2°C | 1.7% | 0hPa | 0V | 00:00:00 | 00:00:00 | 00:00:00 | |
| LZ4TU-5 | 2026-09-05 00:10:55 | 43.07450 | 22.01259 | 58° | 33km/h | 17511m | 5.2m/s | -59.8°C | 1.8% | 0hPa | 0V | 00:00:00 | 00:00:00 | 00:00:00 | |
| LZ4TU-5 | 2026-09-05 00:09:16 | 43.07069 | 22.00475 | 90° | 18km/h | 16994m | 4.8m/s | -58.9°C | 3.2% | 0hPa | 0V | 00:00:00 | 00:00:00 | 00:00:00 | |
| LZ4TU-5 | 2026-09-05 00:09:11 | 43.07066 | 22.00450 | 55° | 16km/h | 16969m | 5.1m/s | -58.8°C | 3.2% | 0hPa | 0V | 00:00:00 | 00:00:00 | 00:00:00 | |
| LZ4TU-5 | 2026-09-05 00:07:32 | 43.07235 | 21.99705 | 133° | 35km/h | 16501m | 4.9m/s | -59.8°C | 4.5% | 0hPa | 0V | 00:00:00 | 00:00:00 | 00:00:00 | |
| LZ4TU-5 | 2026-09-05 00:07:27 | 43.07259 | 21.99653 | 98° | 35km/h | 16476m | 5.5m/s | -59.7°C | 4.6% | 0hPa | 0V | 00:00:00 | 00:00:00 | 00:00:00 | |
| LZ4TU-5 | 2026-09-05 00:05:46 | 43.07204 | 21.98744 | 102° | 26km/h | 15955m | 4.9m/s | -59.3°C | 6.5% | 0hPa | 0V | 00:00:00 | 00:00:00 | 00:00:00 | |
| LZ4TU-5 | 2026-09-05 00:05:41 | 43.07210 | 21.98697 | 106° | 33km/h | 15928m | 4.9m/s | -59.4°C | 6.6% | 0hPa | 0V | 00:00:00 | 00:00:00 | 00:00:00 | |
| LZ4TU-5 | 2026-09-05 00:04:00 | 43.07558 | 21.97944 | 115° | 27km/h | 15426m | 4.1m/s | -60.2°C | 10.3% | 0hPa | 0V | 00:00:00 | 00:00:00 | 00:00:00 | |
| LZ4TU-5 | 2026-09-05 00:03:55 | 43.07575 | 21.97903 | 125° | 33km/h | 15404m | 4.7m/s | -60.1°C | 10.5% | 0hPa | 0V | 00:00:00 | 00:00:00 | 00:00:00 | |
| LZ4TU-5 | 2026-09-05 00:02:12 | 43.08309 | 21.96962 | 151° | 37km/h | 14861m | 4.9m/s | -60.5°C | 18.5% | 0hPa | 0V | 00:00:00 | 00:00:00 | 00:00:00 | |
| LZ4TU-5 | 2026-09-05 00:00:19 | 43.09030 | 21.96083 | 141° | 27km/h | 14315m | 4.4m/s | -62.3°C | 32.6% | 0hPa | 0V | 00:00:00 | 00:00:00 | 00:00:00 | |
| LZ4TU-5 | 2026-09-05 00:00:12 | 43.09048 | 21.96049 | 132° | 24km/h | 14292m | 4.5m/s | -62.3°C | 33.4% | 0hPa | 0V | 00:00:00 | 00:00:00 | 00:00:00 | |
| LZ4TU-5 | 2026-09-04 23:58:29 | 43.09845 | 21.95871 | 200° | 46km/h | 13801m | 6.5m/s | -65.6°C | 43.5% | 0hPa | 0V | 00:00:00 | 00:00:00 | 00:00:00 | |
| LZ4TU-5 | 2026-09-04 23:58:24 | 43.09896 | 21.95871 | 173° | 53km/h | 13770m | 5.5m/s | -65.6°C | 0% | 0hPa | 0V | 00:00:00 | 00:00:00 | 00:00:00 | |
| LZ4TU-5 | 2026-09-04 23:56:49 | 43.11377 | 21.95683 | 179° | 46km/h | 13206m | 8.4m/s | -63.5°C | 40.2% | 0hPa | 0V | 00:00:00 | 00:00:00 | 00:00:00 | |
| LZ4TU-5 | 2026-09-04 23:56:44 | 43.11420 | 21.95679 | 186° | 33km/h | 13164m | 6.8m/s | -63.3°C | 39.7% | 0hPa | 0V | 00:00:00 | 00:00:00 | 00:00:00 | |
| LZ4TU-5 | 2026-09-04 23:55:04 | 43.12696 | 21.95857 | 171° | 60km/h | 12636m | 6.8m/s | -59.6°C | 38.8% | 0hPa | 0V | 00:00:00 | 00:00:00 | 00:00:00 | |
| LZ4TU-5 | 2026-09-04 23:54:59 | 43.12763 | 21.95823 | 196° | 58km/h | 12609m | 6.6m/s | -59.3°C | 39.1% | 0hPa | 0V | 00:00:00 | 00:00:00 | 00:00:00 | |
| LZ4TU-5 | 2026-09-04 23:53:19 | 43.14175 | 21.95455 | 174° | 58km/h | 12068m | 7.6m/s | -55.8°C | 55.1% | 0hPa | 0V | 00:00:00 | 00:00:00 | 00:00:00 | |
| LZ4TU-5 | 2026-09-04 23:53:14 | 43.14240 | 21.95442 | 169° | 55km/h | 12040m | 6.8m/s | -55.6°C | 55.1% | 0hPa | 0V | 00:00:00 | 00:00:00 | 00:00:00 | |
| LZ4TU-5 | 2026-09-04 23:51:33 | 43.15633 | 21.94979 | 178° | 44km/h | 11495m | 5.7m/s | -50.8°C | 53.9% | 0hPa | 0V | 00:00:00 | 00:00:00 | 00:00:00 | |
| LZ4TU-5 | 2026-09-04 23:51:28 | 43.15692 | 21.94967 | 164° | 57km/h | 11472m | 5.7m/s | -50.6°C | 53.5% | 0hPa | 0V | 00:00:00 | 00:00:00 | 00:00:00 | |
| LZ4TU-5 | 2026-09-04 23:49:49 | 43.16806 | 21.94530 | 156° | 42km/h | 10962m | 6.2m/s | -46.2°C | 55.0% | 0hPa | 0V | 00:00:00 | 00:00:00 | 00:00:00 | |
| LZ4TU-5 | 2026-09-04 23:49:44 | 43.16861 | 21.94496 | 160° | 47km/h | 10938m | 5.6m/s | -46.0°C | 55.1% | 0hPa | 0V | 00:00:00 | 00:00:00 | 00:00:00 | |
| LZ4TU-5 | 2026-09-04 23:48:03 | 43.17877 | 21.93980 | 163° | 46km/h | 10522m | 5.2m/s | -42.8°C | 69.1% | 0hPa | 0V | 00:00:00 | 00:00:00 | 00:00:00 | |
| LZ4TU-5 | 2026-09-04 23:47:58 | 43.17933 | 21.93964 | 166° | 46km/h | 10501m | 5.4m/s | -42.7°C | 68.4% | 0hPa | 0V | 00:00:00 | 00:00:00 | 00:00:00 | |
| LZ4TU-5 | 2026-09-04 23:46:14 | 43.19164 | 21.93458 | 163° | 49km/h | 10017m | 5.1m/s | -38.5°C | 35.5% | 0hPa | 0V | 00:00:00 | 00:00:00 | 00:00:00 | |
| LZ4TU-5 | 2026-09-04 23:46:10 | 43.19209 | 21.93439 | 161° | 47km/h | 10001m | 5.1m/s | -38.3°C | 38.9% | 0hPa | 0V | 00:00:00 | 00:00:00 | 00:00:00 | |
| LZ4TU-5 | 2026-09-04 23:44:29 | 43.20292 | 21.92762 | 160° | 44km/h | 9556m | 5.6m/s | -34.4°C | 22.6% | 0hPa | 0V | 00:00:00 | 00:00:00 | 00:00:00 | |
| LZ4TU-5 | 2026-09-04 23:44:25 | 43.20332 | 21.92744 | 156° | 47km/h | 9537m | 5.4m/s | -34.3°C | 23.2% | 0hPa | 0V | 00:00:00 | 00:00:00 | 00:00:00 | |
| LZ4TU-5 | 2026-09-04 23:44:21 | 43.20377 | 21.92707 | 143° | 55km/h | 9519m | 5.3m/s | -34.2°C | 23.3% | 0hPa | 0V | 00:00:00 | 00:00:00 | 00:00:00 | |
| LZ4TU-5 | 2026-09-04 23:44:16 | 43.20428 | 21.92661 | 161° | 51km/h | 9496m | 5.1m/s | -34.0°C | 23.6% | 0hPa | 0V | 00:00:00 | 00:00:00 | 00:00:00 | |
| LZ4TU-5 | 2026-09-04 23:42:32 | 43.21468 | 21.91860 | 156° | 47km/h | 9022m | 5.1m/s | -30.5°C | 35.5% | 0hPa | 0V | 00:00:00 | 00:00:00 | 00:00:00 | |
| LZ4TU-5 | 2026-09-04 23:42:27 | 43.21523 | 21.91834 | 153° | 46km/h | 9003m | 5.2m/s | -30.3°C | 34.5% | 0hPa | 0V | 00:00:00 | 00:00:00 | 00:00:00 | |
| LZ4TU-5 | 2026-09-04 23:41:05 | 43.22260 | 21.91211 | 163° | 33km/h | 8637m | 5.7m/s | -27.6°C | 35.1% | 0hPa | 0V | 00:00:00 | 00:00:00 | 00:00:00 | |
| LZ4TU-5 | 2026-09-04 23:41:01 | 43.22293 | 21.91192 | 146° | 46km/h | 8617m | 5.7m/s | -27.5°C | 34.0% | 0hPa | 0V | 00:00:00 | 00:00:00 | 00:00:00 | |
| LZ4TU-5 | 2026-09-04 23:39:37 | 43.22996 | 21.90505 | 142° | 40km/h | 8200m | 5.8m/s | -23.6°C | 18.2% | 0hPa | 0V | 00:00:00 | 00:00:00 | 00:00:00 | |
| LZ4TU-5 | 2026-09-04 23:39:32 | 43.23036 | 21.90457 | 139° | 37km/h | 8171m | 5.2m/s | -23.3°C | 19.3% | 0hPa | 0V | 00:00:00 | 00:00:00 | 00:00:00 | |
| LZ4TU-5 | 2026-09-04 23:38:17 | 43.23698 | 21.89944 | 166° | 31km/h | 7796m | 5.3m/s | -20.5°C | 25.0% | 0hPa | 0V | 00:00:00 | 00:00:00 | 00:00:00 | |
| LZ4TU-5 | 2026-09-04 23:38:12 | 43.23733 | 21.89924 | 163° | 37km/h | 7771m | 5.0m/s | -20.6°C | 41.7% | 0hPa | 0V | 00:00:00 | 00:00:00 | 00:00:00 | |
| LZ4TU-5 | 2026-09-04 23:36:56 | 43.24376 | 21.89577 | 160° | 42km/h | 7396m | 5.7m/s | -17.7°C | 44.7% | 0hPa | 0V | 00:00:00 | 00:00:00 | 00:00:00 | |
| LZ4TU-5 | 2026-09-04 23:36:51 | 43.24423 | 21.89547 | 143° | 26km/h | 7372m | 6.2m/s | -17.5°C | 45.2% | 0hPa | 0V | 00:00:00 | 00:00:00 | 00:00:00 | |
| LZ4TU-5 | 2026-09-04 23:35:34 | 43.24911 | 21.89201 | 135° | 11km/h | 6952m | 5.6m/s | -14.5°C | 29.2% | 0hPa | 0V | 00:00:00 | 00:00:00 | 00:00:00 | |
| LZ4TU-5 | 2026-09-04 23:35:30 | 43.24927 | 21.89187 | 173° | 33km/h | 6930m | 6.3m/s | -14.3°C | 27.3% | 0hPa | 0V | 00:00:00 | 00:00:00 | 00:00:00 | |
| LZ4TU-5 | 2026-09-04 23:34:13 | 43.25404 | 21.88866 | 166° | 38km/h | 6484m | 4.2m/s | -10.7°C | 28.4% | 0hPa | 0V | 00:00:00 | 00:00:00 | 00:00:00 | |
| LZ4TU-5 | 2026-09-04 23:34:08 | 43.25438 | 21.88851 | 130° | 20km/h | 6465m | 4.7m/s | -10.5°C | 27.9% | 0hPa | 0V | 00:00:00 | 00:00:00 | 00:00:00 | |
| LZ4TU-5 | 2026-09-04 23:32:48 | 43.25894 | 21.88570 | 147° | 26km/h | 6055m | 5.1m/s | -7.8°C | 45.1% | 0hPa | 0V | 00:00:00 | 00:00:00 | 00:00:00 | |
| LZ4TU-5 | 2026-09-04 23:32:44 | 43.25912 | 21.88537 | 144° | 22km/h | 6037m | 5.0m/s | -7.7°C | 43.5% | 0hPa | 0V | 00:00:00 | 00:00:00 | 00:00:00 | |
| LZ4TU-5 | 2026-09-04 23:31:26 | 43.26403 | 21.88440 | 158° | 18km/h | 5641m | 5.3m/s | -5.8°C | 28.7% | 0hPa | 0V | 00:00:00 | 00:00:00 | 00:00:00 | |
| LZ4TU-5 | 2026-09-04 23:31:21 | 43.26430 | 21.88419 | 169° | 26km/h | 5615m | 5.1m/s | -5.8°C | 27.5% | 0hPa | 0V | 00:00:00 | 00:00:00 | 00:00:00 | |
| LZ4TU-5 | 2026-09-04 23:30:11 | 43.27039 | 21.88540 | 222° | 58km/h | 5240m | 5.8m/s | -5.7°C | 33.6% | 0hPa | 0V | 00:00:00 | 00:00:00 | 00:00:00 | |
| LZ4TU-5 | 2026-09-04 23:30:06 | 43.27083 | 21.88591 | 196° | 35km/h | 5210m | 5.6m/s | -5.8°C | 42.5% | 0hPa | 0V | 00:00:00 | 00:00:00 | 00:00:00 | |
| LZ4TU-5 | 2026-09-04 23:28:56 | 43.27902 | 21.89043 | 193° | 51km/h | 4841m | 5.2m/s | -3.1°C | 42.9% | 0hPa | 0V | 00:00:00 | 00:00:00 | 00:00:00 | |
| LZ4TU-5 | 2026-09-04 23:28:51 | 43.27954 | 21.89052 | 198° | 40km/h | 4816m | 5.6m/s | -2.9°C | 0% | 0hPa | 0V | 00:00:00 | 00:00:00 | 00:00:00 | |
| LZ4TU-5 | 2026-09-04 23:27:40 | 43.28765 | 21.89563 | 201° | 49km/h | 4424m | 5.8m/s | 0.6°C | 38.8% | 0hPa | 0V | 00:00:00 | 00:00:00 | 00:00:00 | |
| LZ4TU-5 | 2026-09-04 23:27:35 | 43.28810 | 21.89594 | 208° | 37km/h | 4396m | 5.6m/s | 0.9°C | 38.1% | 0hPa | 0V | 00:00:00 | 00:00:00 | 00:00:00 | |
| LZ4TU-5 | 2026-09-04 23:26:27 | 43.29537 | 21.90018 | 184° | 44km/h | 3994m | 6.3m/s | 3.9°C | 31.7% | 0hPa | 0V | 00:00:00 | 00:00:00 | 00:00:00 | |
| LZ4TU-5 | 2026-09-04 23:26:22 | 43.29592 | 21.90041 | 202° | 57km/h | 3963m | 6.2m/s | 4.0°C | 33.2% | 0hPa | 0V | 00:00:00 | 00:00:00 | 00:00:00 | |
| LZ4TU-5 | 2026-09-04 23:25:14 | 43.30323 | 21.90385 | 204° | 40km/h | 3556m | 6.1m/s | 6.2°C | 39.6% | 0hPa | 0V | 00:00:00 | 00:00:00 | 00:00:00 | |
| LZ4TU-5 | 2026-09-04 23:25:10 | 43.30356 | 21.90408 | 190° | 31km/h | 3532m | 6.1m/s | 6.3°C | 39.9% | 0hPa | 0V | 00:00:00 | 00:00:00 | 00:00:00 | |
| LZ4TU-5 | 2026-09-04 23:25:05 | 43.30406 | 21.90419 | 209° | 40km/h | 3501m | 5.9m/s | 6.6°C | 39.7% | 0hPa | 0V | 00:00:00 | 00:00:00 | 00:00:00 |